Time;durP1;ratioP1;P1;durP2;ratioP2;P2;SDS_P1;SDS_P2;PMS_P1;PMS_P2;Temp;Humidity;BMP_temperature;BMP_pressure;BME280_temperature;BME280_humidity;BME280_pressure;Samples;Min_cycle;Max_cycle;Signal;HPM_P1;HPM_P2
2023/07/10 04:00:40;;;;;;;8.17;2.73;;;21.40;97.30;;;;;;6092872;23;21321;31
2023/07/10 04:03:08;;;;;;;4.57;3.63;;;21.50;97.30;;;;;;4947849;28;20458;-87
2023/07/10 04:05:49;;;;;;;6.20;3.47;;;21.50;97.30;;;;;;4952885;29;20783;-87
2023/07/10 04:08:39;;;;;;;5.83;3.50;;;21.50;97.30;;;;;;4952603;28;20425;-88
2023/07/10 04:11:19;;;;;;;7.80;4.03;;;21.60;97.30;;;;;;4951962;28;20442;-87
2023/07/10 04:13:48;;;;;;;4.50;2.27;;;21.60;97.30;;;;;;4945596;29;20415;-86
2023/07/10 04:16:32;;;;;;;6.57;4.50;;;21.50;97.30;;;;;;4954135;28;20494;-86
2023/07/10 04:18:58;;;;;;;5.80;4.10;;;21.50;97.30;;;;;;4951908;28;20446;-87
2023/07/10 04:21:40;;;;;;;7.23;5.23;;;21.50;97.30;;;;;;4950987;28;20451;-85
2023/07/10 04:24:09;;;;;;;7.53;4.30;;;21.50;97.30;;;;;;4944588;28;20265;-86
2023/07/10 04:26:39;;;;;;;4.90;3.80;;;21.50;97.30;;;;;;4953658;29;20721;-87
2023/07/10 04:29:09;;;;;;;8.93;4.50;;;21.30;97.30;;;;;;4952717;28;20498;-87
2023/07/10 04:31:45;;;;;;;7.17;3.73;;;21.20;97.30;;;;;;4977452;23;20438;-87
2023/07/10 04:34:18;;;;;;;3.77;3.20;;;21.20;97.30;;;;;;4946227;28;20678;-87
2023/07/10 04:36:50;;;;;;;6.70;4.60;;;21.10;97.30;;;;;;4952185;29;20457;-89
2023/07/10 04:39:21;;;;;;;4.53;3.60;;;21.10;97.30;;;;;;4960885;28;20970;-88
2023/07/10 04:42:00;;;;;;;3.43;3.30;;;21.00;97.30;;;;;;4963236;28;20583;-85
2023/07/10 04:44:31;;;;;;;8.07;4.40;;;21.00;97.30;;;;;;4948648;29;20430;-85
2023/07/10 04:47:00;;;;;;;7.20;4.30;;;21.00;97.30;;;;;;4949952;29;20443;-85
2023/07/10 04:49:28;;;;;;;17.47;4.70;;;21.00;97.30;;;;;;4933877;29;20428;-88
2023/07/10 04:52:00;;;;;;;6.73;4.20;;;21.00;97.30;;;;;;4949566;28;20455;-91
2023/07/10 04:54:29;;;;;;;4.57;4.30;;;21.10;97.30;;;;;;4934402;29;20435;-89
2023/07/10 04:57:02;;;;;;;12.97;4.17;;;21.00;97.30;;;;;;4946675;28;20507;-89
2023/07/10 04:59:27;;;;;;;5.10;3.73;;;21.00;97.30;;;;;;4926854;29;20624;-89
2023/07/10 05:01:55;;;;;;;6.57;4.00;;;20.90;97.30;;;;;;4934051;29;20832;-89
2023/07/10 05:04:27;;;;;;;5.00;3.80;;;20.80;97.30;;;;;;4935925;29;20857;-89
2023/07/10 05:07:10;;;;;;;3.67;3.30;;;20.60;97.30;;;;;;4934801;29;20471;-88
2023/07/10 05:09:38;;;;;;;5.83;3.40;;;20.60;97.30;;;;;;4933056;29;20411;-87
2023/07/10 05:12:11;;;;;;;5.43;5.10;;;20.60;97.30;;;;;;4940484;28;20448;-87
2023/07/10 05:14:40;;;;;;;6.27;3.90;;;20.60;97.30;;;;;;4945189;29;20478;-87
2023/07/10 05:17:11;;;;;;;6.57;3.87;;;20.60;97.30;;;;;;4946124;29;20427;-89
2023/07/10 05:19:40;;;;;;;3.97;3.43;;;20.60;97.30;;;;;;4946027;29;20462;-87
2023/07/10 05:22:08;;;;;;;4.23;3.83;;;20.50;97.30;;;;;;4945669;29;20452;-88
2023/07/10 05:25:09;;;;;;;4.17;3.63;;;20.50;97.30;;;;;;4945666;29;20458;-88
2023/07/10 05:27:48;;;;;;;4.00;3.80;;;20.50;97.30;;;;;;4940622;29;20408;-89
2023/07/10 05:30:21;;;;;;;11.37;4.07;;;20.50;97.30;;;;;;4944178;29;20426;-89
2023/07/10 05:32:51;;;;;;;4.30;3.80;;;20.50;97.30;;;;;;4934687;29;20495;-89
2023/07/10 05:35:18;;;;;;;6.40;4.20;;;20.40;97.30;;;;;;4934929;29;20440;-89
2023/07/10 05:37:49;;;;;;;11.83;4.10;;;20.40;97.30;;;;;;4934777;29;20459;-91
2023/07/10 05:40:18;;;;;;;8.83;3.50;;;20.40;97.30;;;;;;4934872;29;20483;-91
2023/07/10 05:43:01;;;;;;;6.90;4.63;;;20.40;97.30;;;;;;4936153;29;20520;-90
2023/07/10 05:45:29;;;;;;;5.87;4.70;;;20.40;97.30;;;;;;4936190;29;20507;-90
2023/07/10 05:47:57;;;;;;;5.60;3.43;;;20.30;97.30;;;;;;4935563;29;20419;-90
2023/07/10 05:50:31;;;;;;;6.50;4.50;;;20.30;97.30;;;;;;4937257;29;20857;-91
2023/07/10 05:52:59;;;;;;;7.80;2.97;;;20.30;97.30;;;;;;4936622;29;20561;-91
2023/07/10 05:55:42;;;;;;;5.93;3.00;;;20.30;97.30;;;;;;4938022;29;20444;-90
2023/07/10 05:58:10;;;;;;;4.93;4.07;;;20.30;97.30;;;;;;4937800;29;20432;-90
2023/07/10 06:00:39;;;;;;;4.60;3.50;;;20.40;97.30;;;;;;4936188;29;20522;-90
2023/07/10 06:03:19;;;;;;;5.13;3.73;;;20.50;97.30;;;;;;4935963;29;20452;-91
2023/07/10 06:09:31;;;;;;;5.83;4.20;;;20.60;97.30;;;;;;4893878;29;20493;-91
2023/07/10 06:13:01;;;;;;;6.50;4.70;;;20.70;97.30;;;;;;4881131;29;20457;-91
2023/07/10 06:19:51;;;;;;;9.43;4.17;;;20.80;97.30;;;;;;4895512;29;20430;-92
2023/07/10 06:22:17;;;;;;;5.67;4.37;;;20.90;97.30;;;;;;4863391;23;20544;-75
2023/07/10 06:24:42;;;;;;;8.20;4.37;;;21.00;97.30;;;;;;4970348;28;20809;-76
2023/07/10 06:27:10;;;;;;;8.87;3.97;;;21.10;97.30;;;;;;4971520;28;20273;-76
2023/07/10 06:29:36;;;;;;;4.80;3.50;;;21.20;97.30;;;;;;4970333;28;20269;-76
2023/07/10 06:32:02;;;;;;;7.13;3.90;;;21.20;97.30;;;;;;4987343;28;20441;-76
2023/07/10 06:34:29;;;;;;;6.30;4.80;;;21.30;97.30;;;;;;4982492;28;20528;-75
2023/07/10 06:36:54;;;;;;;5.83;4.30;;;21.40;97.30;;;;;;4977712;28;20433;-76
2023/07/10 06:39:20;;;;;;;7.57;4.13;;;21.50;97.30;;;;;;4981216;28;20986;-76
2023/07/10 06:41:45;;;;;;;5.50;3.80;;;21.60;97.30;;;;;;4982042;28;20268;-76
2023/07/10 06:44:11;;;;;;;4.53;3.47;;;21.60;97.30;;;;;;4989573;28;20724;-75
2023/07/10 06:46:36;;;;;;;5.23;4.10;;;21.70;97.30;;;;;;4982596;28;20198;-77
2023/07/10 06:49:02;;;;;;;6.43;3.93;;;21.80;97.30;;;;;;4984863;28;20189;-76
2023/07/10 06:51:27;;;;;;;8.13;4.53;;;21.80;97.30;;;;;;4971463;28;20202;-76
2023/07/10 06:53:53;;;;;;;7.50;3.20;;;21.90;97.30;;;;;;4990575;28;20511;-76
2023/07/10 06:56:19;;;;;;;2.17;2.00;;;22.00;97.30;;;;;;4989211;28;20205;-76
2023/07/10 06:58:44;;;;;;;3.73;2.93;;;22.10;97.30;;;;;;4977449;28;20175;-76
2023/07/10 07:01:10;;;;;;;4.30;3.97;;;22.10;97.30;;;;;;4984560;28;20221;-75
2023/07/10 07:03:35;;;;;;;3.80;3.40;;;22.20;97.30;;;;;;4988767;28;20273;-76
2023/07/10 07:06:05;;;;;;;3.33;2.70;;;22.30;97.30;;;;;;4990261;28;20442;-76
2023/07/10 07:08:30;;;;;;;10.93;3.53;;;22.40;97.30;;;;;;4980784;28;20182;-76
2023/07/10 07:10:56;;;;;;;21.70;4.90;;;22.40;97.30;;;;;;4989989;28;20451;-76
2023/07/10 07:13:22;;;;;;;12.37;5.50;;;22.50;97.30;;;;;;4980815;28;20657;-76
2023/07/10 07:15:50;;;;;;;6.80;3.80;;;22.60;97.30;;;;;;4988925;28;20435;-76
2023/07/10 07:18:16;;;;;;;7.50;4.03;;;22.60;97.30;;;;;;4990226;28;20755;-76
2023/07/10 07:20:41;;;;;;;8.40;5.57;;;22.70;97.30;;;;;;4989943;28;21034;-76
2023/07/10 07:23:06;;;;;;;5.73;4.27;;;22.80;97.30;;;;;;4989727;28;20272;-76
2023/07/10 07:25:32;;;;;;;5.30;3.63;;;22.80;97.30;;;;;;4988319;28;20178;-76
2023/07/10 07:28:03;;;;;;;10.13;3.63;;;22.80;97.30;;;;;;4980572;28;20197;-76
2023/07/10 07:30:29;;;;;;;10.73;3.40;;;22.90;97.30;;;;;;4988459;28;20208;-76
2023/07/10 07:32:56;;;;;;;4.10;3.87;;;22.90;97.30;;;;;;4989804;28;20494;-76
2023/07/10 07:35:22;;;;;;;11.43;3.67;;;22.90;97.30;;;;;;4987582;28;20578;-76
2023/07/10 07:37:47;;;;;;;4.27;3.80;;;23.00;97.30;;;;;;4988181;28;20520;-76
2023/07/10 07:40:16;;;;;;;5.20;4.10;;;23.10;97.30;;;;;;4981081;28;20305;-75
2023/07/10 07:42:45;;;;;;;5.80;3.00;;;23.20;97.30;;;;;;4987837;28;20685;-74
2023/07/10 07:45:11;;;;;;;3.20;2.90;;;23.30;97.30;;;;;;4983037;28;20712;-75
2023/07/10 07:47:37;;;;;;;3.00;2.67;;;23.40;97.30;;;;;;4987759;28;20658;-75
2023/07/10 07:50:03;;;;;;;5.03;3.30;;;23.40;97.30;;;;;;4989350;28;20420;-75
2023/07/10 07:52:29;;;;;;;6.37;4.90;;;23.50;97.30;;;;;;4988238;28;20182;-76
2023/07/10 07:54:54;;;;;;;5.17;4.40;;;23.50;97.30;;;;;;4989282;28;20427;-76
2023/07/10 07:57:22;;;;;;;7.90;4.27;;;23.60;97.30;;;;;;4988015;28;20186;-74
2023/07/10 07:59:48;;;;;;;10.80;5.57;;;23.70;97.30;;;;;;4970067;28;20191;-76
2023/07/10 08:02:14;;;;;;;10.20;4.37;;;23.70;97.30;;;;;;4985590;28;20444;-76
2023/07/10 08:04:41;;;;;;;6.40;4.20;;;23.80;97.30;;;;;;4987999;28;20443;-75
2023/07/10 08:07:07;;;;;;;5.40;3.37;;;23.90;97.30;;;;;;4989647;28;20184;-74
2023/07/10 08:09:33;;;;;;;3.53;3.10;;;23.90;97.30;;;;;;4988194;28;20515;-73
2023/07/10 08:11:58;;;;;;;10.37;5.33;;;24.00;97.30;;;;;;4988404;28;20528;-75
2023/07/10 08:14:24;;;;;;;7.93;5.00;;;24.10;97.30;;;;;;4987952;28;20221;-73
2023/07/10 08:16:49;;;;;;;3.23;2.87;;;24.20;97.30;;;;;;4989445;28;20228;-73
2023/07/10 08:19:15;;;;;;;4.37;3.67;;;24.40;97.30;;;;;;4989211;28;20186;-71
2023/07/10 08:21:40;;;;;;;3.80;3.57;;;24.60;96.40;;;;;;4987820;28;20223;-75
2023/07/10 08:24:06;;;;;;;5.67;3.33;;;24.70;96.90;;;;;;4988057;28;20192;-74
2023/07/10 08:26:31;;;;;;;5.00;3.40;;;24.80;96.80;;;;;;4988167;28;20277;-74
2023/07/10 08:28:57;;;;;;;9.73;4.37;;;24.80;96.70;;;;;;4989142;28;20192;-80
2023/07/10 08:31:24;;;;;;;7.23;4.47;;;24.90;95.90;;;;;;4987675;28;20210;-75
2023/07/10 08:33:50;;;;;;;5.63;5.03;;;24.90;95.10;;;;;;4987781;28;20248;-74
2023/07/10 08:36:15;;;;;;;11.00;4.20;;;25.00;95.40;;;;;;4987617;28;21012;-72
2023/07/10 08:38:41;;;;;;;10.43;4.13;;;25.10;94.80;;;;;;4987516;28;20220;-71
2023/07/10 08:41:19;;;;;;;5.50;3.83;;;25.20;94.10;;;;;;4982959;28;20334;-73
2023/07/10 08:43:46;;;;;;;6.37;4.80;;;25.20;93.80;;;;;;4980407;28;20217;-73
2023/07/10 08:46:18;;;;;;;3.97;3.80;;;25.30;92.10;;;;;;4990048;28;20439;-73
2023/07/10 08:48:53;;;;;;;9.60;4.43;;;25.30;93.10;;;;;;4992411;28;20428;-73
2023/07/10 08:51:19;;;;;;;6.70;4.43;;;25.40;92.90;;;;;;4983612;28;20463;-73
2023/07/10 08:53:53;;;;;;;9.37;4.60;;;25.40;92.30;;;;;;4992622;28;20634;-73
2023/07/10 08:56:37;;;;;;;5.50;3.30;;;25.50;93.00;;;;;;4991435;28;20182;-72
2023/07/10 08:59:15;;;;;;;6.33;3.93;;;25.60;93.00;;;;;;4986286;28;20494;-71
2023/07/10 09:01:46;;;;;;;5.57;3.03;;;25.80;91.50;;;;;;4974007;28;20841;-72
2023/07/10 09:04:17;;;;;;;8.63;4.73;;;26.00;88.80;;;;;;4978376;28;21141;-72
2023/07/10 09:06:52;;;;;;;4.90;3.80;;;26.10;89.30;;;;;;4992133;28;20541;-75
2023/07/10 09:09:35;;;;;;;5.47;4.17;;;26.30;88.70;;;;;;4990419;28;20459;-69
2023/07/10 09:12:22;;;;;;;5.60;3.93;;;26.40;87.60;;;;;;4984049;28;20956;-73
2023/07/10 09:14:58;;;;;;;5.70;4.37;;;26.50;87.40;;;;;;4991002;28;20955;-73
2023/07/10 09:17:39;;;;;;;7.73;4.40;;;26.60;87.30;;;;;;4991050;28;20420;-73
2023/07/10 09:20:08;;;;;;;3.50;3.23;;;26.70;87.20;;;;;;4990689;28;21117;-72
2023/07/10 09:22:35;;;;;;;11.13;5.57;;;26.80;86.80;;;;;;4991986;28;20452;-72
2023/07/10 09:25:04;;;;;;;4.03;3.83;;;26.90;87.00;;;;;;4990779;28;20432;-73
2023/07/10 09:27:29;;;;;;;5.70;5.00;;;26.90;87.00;;;;;;4982058;28;20430;-71
2023/07/10 09:29:56;;;;;;;6.60;5.67;;;27.00;86.50;;;;;;4984643;28;20982;-70
2023/07/10 09:32:22;;;;;;;7.47;4.63;;;27.10;85.70;;;;;;4991912;28;20197;-70
2023/07/10 09:34:53;;;;;;;6.00;5.43;;;27.10;85.80;;;;;;4991834;28;20991;-71
2023/07/10 09:37:22;;;;;;;6.87;5.50;;;27.20;85.90;;;;;;4990796;28;20248;-68
2023/07/10 09:39:47;;;;;;;5.97;4.40;;;27.20;85.70;;;;;;4990211;28;20890;-71
2023/07/10 09:42:19;;;;;;;14.03;4.67;;;27.30;86.00;;;;;;4991869;28;20444;-68
2023/07/10 09:44:55;;;;;;;14.93;5.53;;;27.40;85.30;;;;;;4988932;28;20185;-72
2023/07/10 09:47:22;;;;;;;4.40;4.10;;;27.40;85.20;;;;;;4979096;28;20953;-71
2023/07/10 09:49:56;;;;;;;6.93;3.57;;;27.50;85.20;;;;;;4988283;28;20421;-71
2023/07/10 09:52:32;;;;;;;4.73;4.43;;;27.60;85.90;;;;;;4986371;28;20535;-69
2023/07/10 09:55:17;;;;;;;7.17;4.13;;;27.70;84.60;;;;;;4990238;28;20806;-72
2023/07/10 09:58:00;;;;;;;3.50;3.10;;;27.80;85.10;;;;;;4986882;28;20421;-70
2023/07/10 10:00:27;;;;;;;3.63;3.43;;;27.90;84.80;;;;;;4986730;28;20476;-71
2023/07/10 10:03:08;;;;;;;7.67;4.63;;;27.90;84.70;;;;;;4975705;28;20913;-69
2023/07/10 10:05:40;;;;;;;5.20;3.73;;;27.90;84.40;;;;;;4989829;28;20429;-75
2023/07/10 10:08:19;;;;;;;7.40;4.57;;;27.90;85.30;;;;;;4991440;28;20413;-70
2023/07/10 10:10:45;;;;;;;5.60;4.03;;;28.00;85.30;;;;;;4991221;28;20933;-78
2023/07/10 10:13:20;;;;;;;6.83;3.90;;;28.00;85.00;;;;;;4990284;28;20417;-72
2023/07/10 10:16:06;;;;;;;5.10;4.30;;;28.10;85.20;;;;;;4991507;28;20184;-74
2023/07/10 10:18:50;;;;;;;4.10;3.80;;;28.10;85.60;;;;;;4991258;28;20430;-71
2023/07/10 10:21:18;;;;;;;8.47;4.67;;;28.20;85.30;;;;;;4983608;28;20466;-68
2023/07/10 10:23:47;;;;;;;6.20;3.70;;;28.30;85.00;;;;;;4982110;28;21027;-72
2023/07/10 10:26:24;;;;;;;11.17;4.53;;;28.30;85.30;;;;;;4989842;28;20421;-72
2023/07/10 10:29:18;;;;;;;4.97;4.53;;;28.30;85.50;;;;;;4982058;28;20520;-71
2023/07/10 10:37:00;;;;;;;11.17;3.40;;;28.40;86.60;;;;;;4932401;29;20871;-81
2023/07/10 10:39:43;;;;;;;4.20;2.87;;;28.40;86.70;;;;;;4932926;29;20856;-84
2023/07/10 10:42:25;;;;;;;5.33;2.77;;;28.40;87.90;;;;;;4932606;29;20460;-79
2023/07/10 10:45:08;;;;;;;4.97;3.07;;;28.40;87.30;;;;;;4932898;29;20619;-80
2023/07/10 10:47:45;;;;;;;7.40;2.60;;;28.40;88.10;;;;;;4932833;29;20442;-83
2023/07/10 10:50:26;;;;;;;4.63;2.93;;;28.40;88.30;;;;;;4932787;29;20439;-80
2023/07/10 10:53:13;;;;;;;4.77;3.67;;;28.50;88.20;;;;;;4933377;29;20923;-80
2023/07/10 10:56:06;;;;;;;9.83;4.10;;;28.50;87.50;;;;;;4932359;29;20538;-69
2023/07/10 10:58:38;;;;;;;7.47;4.63;;;28.40;88.00;;;;;;4931825;29;20808;-76
2023/07/10 11:01:20;;;;;;;3.97;3.77;;;28.40;88.40;;;;;;4931864;29;21050;-77
2023/07/10 11:03:57;;;;;;;6.43;4.10;;;28.40;88.60;;;;;;4931819;29;20503;-86
2023/07/10 11:06:26;;;;;;;4.73;4.43;;;28.40;87.80;;;;;;4931454;29;20431;-68
2023/07/10 11:08:53;;;;;;;8.50;4.13;;;28.40;88.20;;;;;;4930843;29;20446;-82
2023/07/10 11:11:37;;;;;;;7.07;5.07;;;28.40;87.80;;;;;;4931743;29;20471;-79
2023/07/10 11:14:04;;;;;;;5.63;3.93;;;28.40;88.20;;;;;;4931467;29;20442;-78
2023/07/10 11:16:32;;;;;;;5.47;3.60;;;28.40;87.80;;;;;;4931994;29;20435;-81
2023/07/10 11:18:59;;;;;;;3.87;3.47;;;28.40;87.70;;;;;;4925574;29;20446;-63
2023/07/10 11:21:30;;;;;;;6.60;3.60;;;28.40;87.90;;;;;;4932515;29;21061;-72
2023/07/10 11:23:55;;;;;;;4.73;3.57;;;28.40;87.70;;;;;;4908314;29;20435;-79
2023/07/10 11:26:22;;;;;;;7.50;3.90;;;28.30;88.50;;;;;;4915345;29;20442;-70
2023/07/10 11:29:19;;;;;;;5.30;4.53;;;28.30;88.40;;;;;;4931428;29;20190;-81
2023/07/10 11:31:52;;;;;;;5.03;4.10;;;28.30;88.60;;;;;;4932355;29;20491;-79
2023/07/10 11:34:30;;;;;;;7.33;3.80;;;28.40;88.60;;;;;;4931663;29;20443;-73
2023/07/10 11:36:57;;;;;;;3.63;3.53;;;28.40;88.30;;;;;;4930923;29;20447;-84
2023/07/10 11:39:40;;;;;;;5.83;4.17;;;28.40;88.40;;;;;;4931320;29;20427;-81
2023/07/10 11:42:15;;;;;;;10.50;4.90;;;28.40;88.50;;;;;;4931246;29;20452;-81
2023/07/10 11:44:41;;;;;;;5.23;4.00;;;28.30;88.50;;;;;;4928684;29;20423;-78
2023/07/10 11:47:10;;;;;;;5.10;4.87;;;28.30;88.60;;;;;;4931468;29;20473;-77
2023/07/10 11:49:35;;;;;;;18.43;5.70;;;28.40;88.40;;;;;;4931139;29;20424;-76
2023/07/10 11:52:13;;;;;;;10.13;4.20;;;28.40;88.80;;;;;;4930840;29;20494;-82
2023/07/10 11:54:48;;;;;;;5.63;4.93;;;28.50;88.60;;;;;;4931854;29;20187;-80
2023/07/10 11:57:29;;;;;;;6.67;4.33;;;28.50;88.30;;;;;;4931311;29;20439;-79
2023/07/10 11:59:56;;;;;;;11.87;3.93;;;28.60;88.20;;;;;;4932630;29;20517;-75
2023/07/10 12:02:51;;;;;;;9.57;5.87;;;28.50;88.90;;;;;;4932078;29;20623;-77
2023/07/10 12:05:33;;;;;;;4.77;3.97;;;28.40;87.90;;;;;;4928339;29;20420;-80
2023/07/10 12:08:08;;;;;;;10.13;3.70;;;28.30;87.90;;;;;;4931964;29;20514;-81
2023/07/10 12:10:45;;;;;;;9.90;3.97;;;28.20;87.90;;;;;;4930658;29;20451;-74
2023/07/10 12:13:27;;;;;;;10.73;4.10;;;28.10;88.30;;;;;;4926725;29;20430;-80
2023/07/10 12:15:54;;;;;;;10.97;5.40;;;27.90;88.30;;;;;;4929676;29;20441;-75
2023/07/10 12:18:26;;;;;;;6.43;5.67;;;27.60;88.70;;;;;;4930409;29;20439;-78
2023/07/10 12:20:53;;;;;;;9.03;5.40;;;27.40;89.50;;;;;;4931492;29;20530;-77
2023/07/10 12:23:20;;;;;;;7.43;4.40;;;27.20;90.20;;;;;;4933570;29;20435;-80
2023/07/10 12:25:49;;;;;;;11.53;6.03;;;27.20;90.50;;;;;;4933799;29;20416;-72
2023/07/10 12:28:21;;;;;;;5.00;4.50;;;27.10;90.60;;;;;;4935485;29;20522;-80
2023/07/10 12:30:50;;;;;;;8.27;6.00;;;27.20;90.90;;;;;;4932927;29;20439;-79
2023/07/10 12:34:01;;;;;;;6.53;4.80;;;27.20;90.90;;;;;;4935263;29;20927;-81
2023/07/10 12:36:33;;;;;;;5.23;4.33;;;27.10;90.50;;;;;;4930826;29;21014;-78
2023/07/10 12:39:04;;;;;;;13.73;5.80;;;27.10;91.10;;;;;;4933893;29;20515;-80
2023/07/10 12:41:41;;;;;;;8.77;4.33;;;26.90;90.60;;;;;;4934257;29;21025;-81
2023/07/10 12:44:16;;;;;;;21.70;4.40;;;26.80;90.90;;;;;;4933220;29;20446;-64
2023/07/10 12:46:42;;;;;;;9.70;3.90;;;26.80;91.40;;;;;;4934336;29;20427;-78
2023/07/10 12:49:13;;;;;;;5.00;4.03;;;26.80;91.10;;;;;;4935483;29;20450;-82
2023/07/10 12:51:44;;;;;;;4.33;3.97;;;26.70;90.90;;;;;;4918227;29;20211;-67
2023/07/10 12:54:46;;;;;;;4.23;3.97;;;26.40;91.40;;;;;;4933939;29;20434;-75
2023/07/10 12:57:22;;;;;;;5.10;4.23;;;26.10;92.10;;;;;;4929587;29;20431;-73
2023/07/10 12:59:49;;;;;;;5.73;3.23;;;26.00;92.60;;;;;;4934453;29;20467;-84
2023/07/10 13:02:23;;;;;;;6.63;4.03;;;25.90;92.90;;;;;;4934421;29;20554;-74
2023/07/10 13:04:54;;;;;;;34.07;4.87;;;25.90;93.20;;;;;;4933313;29;20501;-63
2023/07/10 13:07:22;;;;;;;3.73;2.70;;;26.10;93.30;;;;;;4933701;29;20442;-70
2023/07/10 13:09:56;;;;;;;6.37;4.17;;;26.30;92.60;;;;;;4934277;29;20803;-82
2023/07/10 13:12:22;;;;;;;4.40;3.00;;;26.50;91.80;;;;;;4934136;29;20821;-83
2023/07/10 13:14:51;;;;;;;5.23;4.13;;;26.60;91.80;;;;;;4933502;29;20510;-76
2023/07/10 13:17:21;;;;;;;4.27;3.50;;;26.60;91.20;;;;;;4917822;29;20427;-81
2023/07/10 13:19:47;;;;;;;7.97;3.53;;;26.50;91.10;;;;;;4934749;29;20470;-81
2023/07/10 13:22:14;;;;;;;3.50;3.40;;;26.20;91.70;;;;;;4934963;29;20427;-78
2023/07/10 13:24:40;;;;;;;6.70;3.60;;;26.00;92.30;;;;;;4935314;29;20478;-84
2023/07/10 13:27:20;;;;;;;7.07;3.70;;;25.80;92.60;;;;;;4935149;29;20837;-80
2023/07/10 13:29:46;;;;;;;3.87;2.90;;;25.70;92.80;;;;;;4934084;29;20259;-71
2023/07/10 13:32:13;;;;;;;7.63;3.90;;;25.70;93.40;;;;;;4933994;29;20534;-85
2023/07/10 13:34:39;;;;;;;5.67;3.83;;;25.90;93.10;;;;;;4934712;29;20295;-80
2023/07/10 13:37:31;;;;;;;3.37;3.20;;;26.00;93.20;;;;;;4934145;29;20430;-79
2023/07/10 13:39:57;;;;;;;3.00;2.80;;;26.20;92.50;;;;;;4933331;29;20522;-84
2023/07/10 13:42:22;;;;;;;2.63;2.20;;;26.20;92.20;;;;;;4933046;29;20483;-75
2023/07/10 13:44:48;;;;;;;4.80;3.20;;;26.10;91.00;;;;;;4934762;29;20679;-61
2023/07/10 13:47:16;;;;;;;2.97;2.77;;;26.00;91.50;;;;;;4933157;29;20674;-70
2023/07/10 13:49:43;;;;;;;10.43;4.60;;;25.90;91.30;;;;;;4933187;29;20208;-77
2023/07/10 13:52:29;;;;;;;6.70;3.53;;;25.80;91.40;;;;;;4916896;29;20466;-84
2023/07/10 13:54:55;;;;;;;5.53;3.73;;;25.70;91.50;;;;;;4932678;29;20436;-82
2023/07/10 13:57:27;;;;;;;3.10;2.20;;;25.90;92.00;;;;;;4917045;29;20530;-81
2023/07/10 13:59:54;;;;;;;3.37;3.03;;;26.00;90.90;;;;;;4929438;29;20513;-77
2023/07/10 14:02:35;;;;;;;3.77;3.30;;;26.00;91.30;;;;;;4932842;29;20514;-79
2023/07/10 14:05:07;;;;;;;3.97;3.23;;;26.00;90.90;;;;;;4932465;29;20427;-69
2023/07/10 14:07:33;;;;;;;4.10;2.90;;;26.00;91.10;;;;;;4916405;29;20535;-77
2023/07/10 14:10:00;;;;;;;5.67;5.33;;;25.90;91.10;;;;;;4924652;29;20440;-84
2023/07/10 14:12:31;;;;;;;5.03;3.10;;;25.90;91.60;;;;;;4931707;29;20679;-79
2023/07/10 14:14:57;;;;;;;3.00;2.50;;;25.80;91.60;;;;;;4934276;29;20768;-78
2023/07/10 14:17:29;;;;;;;3.33;3.10;;;25.90;91.40;;;;;;4933064;29;21011;-81
2023/07/10 14:19:55;;;;;;;4.00;3.77;;;26.00;91.50;;;;;;4933753;29;20203;-78
2023/07/10 14:22:21;;;;;;;4.57;3.47;;;26.20;91.10;;;;;;4931554;29;20510;-82
2023/07/10 14:24:46;;;;;;;4.53;3.57;;;26.40;90.90;;;;;;4930799;29;20424;-76
2023/07/10 14:27:20;;;;;;;3.30;2.93;;;26.50;90.10;;;;;;4937251;29;20182;-79
2023/07/10 14:29:46;;;;;;;2.77;2.47;;;26.60;89.70;;;;;;4927070;28;20200;-78
2023/07/10 14:32:13;;;;;;;6.10;3.20;;;26.80;89.20;;;;;;4928980;29;20463;-78
2023/07/10 14:34:39;;;;;;;3.03;2.83;;;26.90;88.80;;;;;;4932760;29;20439;-81
2023/07/10 14:37:12;;;;;;;4.40;3.33;;;27.00;88.70;;;;;;4929214;29;20431;-81
2023/07/10 14:39:38;;;;;;;4.90;3.80;;;27.00;89.30;;;;;;4928654;29;20189;-78
2023/07/10 14:42:14;;;;;;;3.40;2.50;;;27.10;88.60;;;;;;4933098;29;20446;-74
2023/07/10 14:44:40;;;;;;;2.60;1.80;;;27.20;87.70;;;;;;4931872;29;20184;-81
2023/07/10 14:47:18;;;;;;;4.30;3.27;;;27.30;87.80;;;;;;4931525;29;20416;-78
2023/07/10 14:49:46;;;;;;;5.00;3.03;;;27.30;87.70;;;;;;4930350;29;20435;-86
2023/07/10 14:52:18;;;;;;;5.10;3.07;;;27.20;87.70;;;;;;4931216;29;20820;-81
2023/07/10 14:54:43;;;;;;;2.67;2.53;;;27.20;88.60;;;;;;4931877;29;20424;-70
2023/07/10 14:57:19;;;;;;;23.63;5.17;;;27.30;87.60;;;;;;4931139;29;20432;-81
2023/07/10 14:59:48;;;;;;;16.13;3.13;;;27.50;86.80;;;;;;4925815;29;20302;-80
2023/07/10 15:02:17;;;;;;;3.23;2.57;;;27.60;86.80;;;;;;4926054;29;20450;-79
2023/07/10 15:04:43;;;;;;;2.37;2.17;;;27.60;86.00;;;;;;4916161;29;20483;-83
2023/07/10 15:07:11;;;;;;;2.53;2.00;;;27.60;86.60;;;;;;4931605;29;20423;-83
2023/07/10 15:09:37;;;;;;;3.43;2.77;;;27.60;84.70;;;;;;4913221;29;20552;-78
2023/07/10 15:12:02;;;;;;;4.20;3.10;;;27.60;85.00;;;;;;4929531;29;20451;-85
2023/07/10 15:14:28;;;;;;;3.93;2.53;;;27.60;85.10;;;;;;4932459;29;20594;-84
2023/07/10 15:16:53;;;;;;;2.33;2.23;;;27.60;85.00;;;;;;4931124;29;20660;-83
2023/07/10 15:19:23;;;;;;;3.43;2.50;;;27.70;86.00;;;;;;4931094;29;20254;-82
2023/07/10 15:21:49;;;;;;;4.20;3.23;;;27.90;85.60;;;;;;4930059;29;20215;-81
2023/07/10 15:24:27;;;;;;;2.60;2.40;;;27.90;84.90;;;;;;4929498;29;20438;-78
2023/07/10 15:26:53;;;;;;;5.03;2.90;;;28.00;84.30;;;;;;4930232;29;20211;-84
2023/07/10 15:29:19;;;;;;;3.83;2.10;;;28.00;84.70;;;;;;4915288;29;20463;-76
2023/07/10 15:31:45;;;;;;;4.53;2.80;;;28.00;83.50;;;;;;4929693;29;20723;-75
2023/07/10 15:34:15;;;;;;;4.53;2.93;;;28.00;83.60;;;;;;4928812;29;20186;-78
2023/07/10 15:36:40;;;;;;;4.87;2.90;;;27.80;83.70;;;;;;4929351;29;20489;-84
2023/07/10 15:39:14;;;;;;;8.00;3.20;;;27.90;83.70;;;;;;4930271;29;20511;-74
2023/07/10 15:41:40;;;;;;;3.03;2.73;;;27.90;83.60;;;;;;4931887;28;20219;-73
2023/07/10 15:44:13;;;;;;;3.77;2.17;;;28.00;83.60;;;;;;4930466;29;20774;-81
2023/07/10 15:46:43;;;;;;;10.93;3.27;;;28.10;83.00;;;;;;4930447;29;20423;-76
2023/07/10 15:49:22;;;;;;;4.40;2.90;;;28.10;83.20;;;;;;4923267;29;20471;-80
2023/07/10 15:51:50;;;;;;;4.27;2.73;;;28.10;82.30;;;;;;4929156;29;20829;-76
2023/07/10 15:54:17;;;;;;;2.63;2.53;;;28.00;82.60;;;;;;4930974;29;20435;-76
2023/07/10 15:56:42;;;;;;;6.07;3.67;;;27.90;82.20;;;;;;4930590;29;20542;-81
2023/07/10 15:59:16;;;;;;;3.60;3.20;;;27.90;83.00;;;;;;4931303;29;21219;-81
2023/07/10 16:01:43;;;;;;;4.57;3.60;;;27.90;82.90;;;;;;4930817;29;20211;-76
2023/07/10 16:04:17;;;;;;;5.70;3.37;;;28.00;83.10;;;;;;4931013;29;20510;-72
2023/07/10 16:06:43;;;;;;;4.10;2.90;;;28.10;81.90;;;;;;4930440;29;20416;-81
2023/07/10 16:09:10;;;;;;;2.43;2.27;;;28.20;82.50;;;;;;4930181;29;20423;-79
2023/07/10 16:11:36;;;;;;;4.27;3.10;;;28.10;81.70;;;;;;4931995;29;20627;-80
2023/07/10 16:14:01;;;;;;;4.30;3.10;;;27.90;81.80;;;;;;4929707;29;20467;-78
2023/07/10 16:16:27;;;;;;;2.70;2.50;;;27.70;82.50;;;;;;4930466;29;20270;-81
2023/07/10 16:18:54;;;;;;;3.93;1.90;;;27.60;82.70;;;;;;4930447;29;20607;-72
2023/07/10 16:21:24;;;;;;;2.17;2.00;;;27.50;83.30;;;;;;4930730;29;20239;-82
2023/07/10 16:23:51;;;;;;;3.83;3.10;;;27.40;83.30;;;;;;4930503;29;20419;-79
2023/07/10 16:26:20;;;;;;;5.53;2.73;;;27.40;83.40;;;;;;4926364;29;20420;-76
2023/07/10 16:28:45;;;;;;;3.47;2.27;;;27.50;83.70;;;;;;4930229;29;20493;-79
2023/07/10 16:31:25;;;;;;;3.47;2.80;;;27.60;83.70;;;;;;4931254;29;20604;-77
2023/07/10 16:33:51;;;;;;;2.80;2.30;;;27.80;83.70;;;;;;4928570;29;20176;-81
2023/07/10 16:36:18;;;;;;;2.70;2.50;;;27.90;82.70;;;;;;4915284;29;20751;-79
2023/07/10 16:38:44;;;;;;;4.53;2.33;;;27.90;82.50;;;;;;4948502;23;20709;-68
2023/07/10 16:41:13;;;;;;;3.03;2.30;;;27.90;82.60;;;;;;4950791;28;21138;-67
2023/07/10 16:43:39;;;;;;;3.43;2.37;;;27.90;82.70;;;;;;4956343;28;20431;-67
2023/07/10 16:46:04;;;;;;;3.07;2.57;;;28.00;83.30;;;;;;4956544;28;20445;-67
2023/07/10 16:48:30;;;;;;;6.33;3.53;;;27.90;82.40;;;;;;4955544;28;20377;-67
2023/07/10 16:50:59;;;;;;;5.77;2.40;;;27.80;82.30;;;;;;4960469;28;20548;-67
2023/07/10 16:53:30;;;;;;;2.33;1.97;;;27.60;82.60;;;;;;4960921;28;20175;-68
2023/07/10 16:55:59;;;;;;;5.10;2.50;;;27.40;83.30;;;;;;4947633;28;20427;-67
2023/07/10 16:58:30;;;;;;;8.43;2.47;;;27.20;83.30;;;;;;4952494;28;20418;-67
2023/07/10 17:00:58;;;;;;;4.40;2.80;;;27.10;83.90;;;;;;4959304;28;20485;-67
2023/07/10 17:03:26;;;;;;;2.33;2.00;;;26.90;84.10;;;;;;4967362;28;20422;-67
2023/07/10 17:05:52;;;;;;;2.57;2.37;;;26.80;84.50;;;;;;4950951;28;20442;-66
2023/07/10 17:08:20;;;;;;;5.43;2.10;;;26.80;84.80;;;;;;4965750;28;20423;-67
2023/07/10 17:10:47;;;;;;;2.47;2.17;;;26.70;84.90;;;;;;4960909;28;20457;-67
2023/07/10 17:13:15;;;;;;;8.63;2.70;;;26.70;84.90;;;;;;4942747;28;20446;-67
2023/07/10 17:15:46;;;;;;;2.40;1.80;;;26.60;84.90;;;;;;4955249;28;20430;-67
2023/07/10 17:18:16;;;;;;;7.60;2.47;;;26.60;85.00;;;;;;4950796;28;20927;-67